Time;durP1;ratioP1;P1;durP2;ratioP2;P2;SDS_P1;SDS_P2;PMS_P1;PMS_P2;Temp;Humidity;BMP_temperature;BMP_pressure;BME280_temperature;BME280_humidity;BME280_pressure;Samples;Min_cycle;Max_cycle;Signal;HPM_P1;HPM_P2
2023/05/21 00:00:38;;;;;;;12.07;5.90;;;16.50;98.00;;;;;;5032238;28;20800;-66
2023/05/21 00:03:12;;;;;;;10.77;4.60;;;16.50;98.00;;;;;;5030308;28;20466;-67
2023/05/21 00:05:40;;;;;;;9.47;4.87;;;16.50;98.00;;;;;;5031920;28;20450;-67
2023/05/21 00:08:07;;;;;;;11.03;5.57;;;16.40;98.00;;;;;;5031841;28;20553;-67
2023/05/21 00:10:35;;;;;;;9.97;5.37;;;16.40;98.00;;;;;;5032057;28;20486;-67
2023/05/21 00:13:02;;;;;;;9.80;4.93;;;16.40;98.00;;;;;;5031696;28;20459;-67
2023/05/21 00:15:29;;;;;;;10.57;5.33;;;16.30;98.00;;;;;;5031745;28;21029;-67
2023/05/21 00:17:57;;;;;;;12.30;5.07;;;16.20;98.00;;;;;;5031572;28;20455;-67
2023/05/21 00:20:24;;;;;;;13.37;6.43;;;16.00;98.00;;;;;;5030475;28;20459;-67
2023/05/21 00:22:51;;;;;;;13.07;5.50;;;15.90;98.00;;;;;;5031510;28;20450;-67
2023/05/21 00:25:18;;;;;;;11.87;5.47;;;15.80;98.00;;;;;;5031957;28;20524;-67
2023/05/21 00:27:47;;;;;;;12.00;5.97;;;15.70;98.00;;;;;;5031339;28;21042;-67
2023/05/21 00:30:15;;;;;;;11.70;5.90;;;15.80;98.00;;;;;;5031380;28;20996;-67
2023/05/21 00:32:42;;;;;;;10.03;5.40;;;15.80;98.00;;;;;;5031533;28;20455;-67
2023/05/21 00:35:09;;;;;;;10.10;5.07;;;15.70;98.00;;;;;;5031420;28;20944;-67
2023/05/21 00:37:36;;;;;;;13.07;5.97;;;15.60;98.00;;;;;;5031263;28;21129;-67
2023/05/21 00:40:06;;;;;;;12.70;5.60;;;15.50;98.00;;;;;;5031453;28;20878;-67
2023/05/21 00:42:38;;;;;;;15.87;5.70;;;15.60;98.00;;;;;;5031374;28;20492;-67
2023/05/21 00:45:08;;;;;;;12.37;5.70;;;15.70;98.00;;;;;;5030248;28;20486;-68
2023/05/21 00:47:36;;;;;;;17.63;5.97;;;15.70;98.00;;;;;;5030092;28;20500;-67
2023/05/21 00:50:05;;;;;;;11.47;5.37;;;15.60;98.00;;;;;;5031239;28;20537;-67
2023/05/21 00:52:32;;;;;;;15.13;5.70;;;15.70;98.00;;;;;;5031750;28;20470;-67
2023/05/21 00:54:59;;;;;;;12.10;5.97;;;15.80;98.00;;;;;;5031423;28;20813;-67
2023/05/21 00:57:27;;;;;;;14.40;5.90;;;15.70;98.00;;;;;;5030265;28;20462;-67
2023/05/21 00:59:54;;;;;;;14.63;6.03;;;15.50;98.00;;;;;;5031245;28;20968;-67
2023/05/21 01:02:24;;;;;;;14.80;6.57;;;15.50;98.00;;;;;;5031001;28;20511;-67
2023/05/21 01:04:54;;;;;;;14.40;6.23;;;15.60;98.00;;;;;;5031203;28;20486;-67
2023/05/21 01:07:21;;;;;;;13.97;5.90;;;15.80;98.00;;;;;;5030987;28;20450;-67
2023/05/21 01:09:49;;;;;;;13.13;5.53;;;15.70;98.00;;;;;;5031206;28;20482;-67
2023/05/21 01:12:18;;;;;;;12.17;5.93;;;15.60;98.00;;;;;;5029794;28;20463;-67
2023/05/21 01:14:45;;;;;;;12.10;5.80;;;15.50;98.00;;;;;;5032581;28;20450;-68
2023/05/21 01:17:14;;;;;;;13.37;5.73;;;15.50;98.00;;;;;;5034934;28;20463;-67
2023/05/21 01:19:44;;;;;;;12.13;5.50;;;15.60;98.00;;;;;;5035067;28;20537;-66
2023/05/21 01:22:13;;;;;;;11.47;5.97;;;15.60;98.00;;;;;;5034852;28;20911;-67
2023/05/21 01:24:46;;;;;;;11.70;5.63;;;15.60;98.00;;;;;;5035012;28;20505;-67
2023/05/21 01:27:13;;;;;;;11.33;5.63;;;15.50;98.00;;;;;;5034507;28;20477;-68
2023/05/21 01:29:40;;;;;;;9.97;5.50;;;15.50;98.00;;;;;;5034683;28;20486;-68
2023/05/21 01:32:16;;;;;;;18.33;6.10;;;15.50;98.00;;;;;;5034755;28;20465;-66
2023/05/21 01:34:52;;;;;;;14.73;5.70;;;15.50;98.00;;;;;;5034334;28;20458;-67
2023/05/21 01:37:27;;;;;;;12.03;5.90;;;15.50;98.00;;;;;;5034605;28;20458;-67
2023/05/21 01:39:59;;;;;;;15.20;6.23;;;15.50;98.00;;;;;;5034681;28;20967;-67
2023/05/21 01:42:30;;;;;;;11.43;5.80;;;15.40;98.00;;;;;;5034721;28;20455;-68
2023/05/21 01:44:59;;;;;;;17.17;6.60;;;15.30;98.00;;;;;;5034737;28;20481;-67
2023/05/21 01:47:30;;;;;;;14.10;6.17;;;15.40;98.00;;;;;;5034711;28;20462;-67
2023/05/21 01:49:57;;;;;;;12.57;5.70;;;15.40;98.00;;;;;;5034439;28;21011;-67
2023/05/21 01:52:25;;;;;;;12.93;6.03;;;15.40;98.00;;;;;;5034417;28;20455;-67
2023/05/21 01:54:53;;;;;;;13.13;6.10;;;15.40;98.00;;;;;;5034624;28;20624;-67
2023/05/21 01:57:21;;;;;;;18.87;6.10;;;15.30;98.00;;;;;;5034344;28;20451;-67
2023/05/21 01:59:48;;;;;;;12.10;5.37;;;15.20;98.00;;;;;;5034352;28;20967;-67
2023/05/21 02:02:15;;;;;;;12.67;6.27;;;15.30;98.00;;;;;;5034282;28;20517;-66
2023/05/21 02:04:45;;;;;;;13.30;6.13;;;15.20;98.00;;;;;;5034247;28;20517;-68
2023/05/21 02:07:13;;;;;;;10.87;5.67;;;15.30;98.00;;;;;;5016747;28;20467;-67
2023/05/21 02:09:40;;;;;;;12.30;6.27;;;15.30;98.00;;;;;;5034168;28;21108;-67
2023/05/21 02:12:08;;;;;;;13.67;6.10;;;15.40;98.00;;;;;;5034020;28;20455;-67
2023/05/21 02:14:37;;;;;;;8.37;4.80;;;15.40;98.00;;;;;;5034265;28;20458;-68
2023/05/21 02:17:04;;;;;;;15.83;5.73;;;15.30;98.00;;;;;;5033851;28;20822;-67
2023/05/21 02:19:31;;;;;;;12.00;5.50;;;15.40;98.00;;;;;;5033866;28;20469;-67
2023/05/21 02:21:58;;;;;;;13.27;6.43;;;15.40;98.00;;;;;;5033825;28;20470;-67
2023/05/21 02:24:25;;;;;;;10.43;5.37;;;15.30;98.00;;;;;;5033964;28;20469;-68
2023/05/21 02:26:52;;;;;;;14.17;6.23;;;15.20;98.00;;;;;;5033040;28;20466;-68
2023/05/21 02:29:19;;;;;;;11.70;5.50;;;15.20;98.00;;;;;;5033765;28;20951;-67
2023/05/21 02:31:49;;;;;;;13.83;5.80;;;15.30;98.00;;;;;;5033838;28;20543;-67
2023/05/21 02:34:19;;;;;;;14.03;6.50;;;15.40;98.00;;;;;;5032398;28;20450;-67
2023/05/21 02:36:51;;;;;;;16.60;6.10;;;15.40;98.00;;;;;;5033564;28;20455;-67
2023/05/21 02:39:18;;;;;;;15.63;6.10;;;15.40;98.00;;;;;;5033740;28;20533;-67
2023/05/21 02:41:46;;;;;;;14.20;6.57;;;15.30;98.00;;;;;;5033712;28;20549;-67
2023/05/21 02:44:14;;;;;;;12.00;6.10;;;15.20;98.00;;;;;;5032444;28;20960;-67
2023/05/21 02:46:41;;;;;;;11.33;5.33;;;15.00;98.00;;;;;;5033515;28;20842;-67
2023/05/21 02:49:11;;;;;;;11.93;6.17;;;14.90;98.00;;;;;;5033736;28;20487;-67
2023/05/21 02:51:38;;;;;;;13.20;6.50;;;14.90;98.00;;;;;;5033041;28;20494;-66
2023/05/21 02:54:05;;;;;;;12.13;6.40;;;15.00;98.00;;;;;;5033369;28;20457;-68
2023/05/21 02:56:33;;;;;;;10.80;5.53;;;14.90;98.00;;;;;;5033186;28;20459;-67
2023/05/21 02:59:00;;;;;;;13.60;6.83;;;14.80;98.00;;;;;;5032480;28;20455;-67
2023/05/21 03:01:27;;;;;;;11.90;5.63;;;14.70;98.00;;;;;;5034431;28;20566;-67
2023/05/21 03:03:54;;;;;;;13.77;6.07;;;14.70;98.00;;;;;;5032076;28;20469;-67
2023/05/21 03:06:22;;;;;;;12.53;6.20;;;14.80;98.00;;;;;;5033768;28;20459;-68
2023/05/21 03:08:50;;;;;;;11.07;6.00;;;14.70;98.00;;;;;;5032961;28;20459;-67
2023/05/21 03:11:18;;;;;;;13.93;6.60;;;14.60;98.00;;;;;;5033359;28;20980;-67
2023/05/21 03:13:46;;;;;;;16.50;6.77;;;14.50;98.00;;;;;;5032825;28;20467;-67
2023/05/21 03:16:13;;;;;;;11.43;6.17;;;14.50;98.00;;;;;;5032736;28;20517;-68
2023/05/21 03:18:40;;;;;;;12.30;5.60;;;14.40;98.00;;;;;;5032982;28;20471;-67
2023/05/21 03:21:07;;;;;;;14.27;5.90;;;14.40;98.00;;;;;;5032848;28;20454;-67
2023/05/21 03:23:35;;;;;;;17.40;7.37;;;14.40;98.00;;;;;;5032938;28;20471;-67
2023/05/21 03:26:03;;;;;;;13.57;5.80;;;14.30;98.00;;;;;;5032598;28;20964;-66
2023/05/21 03:28:31;;;;;;;12.50;6.00;;;14.40;98.00;;;;;;5032584;28;20476;-67
2023/05/21 03:30:58;;;;;;;17.50;7.00;;;14.40;98.00;;;;;;5032740;28;21193;-67
2023/05/21 03:33:28;;;;;;;13.07;6.03;;;14.40;98.00;;;;;;5031469;28;20458;-67
2023/05/21 03:35:55;;;;;;;11.67;6.03;;;14.40;98.00;;;;;;5031337;28;20489;-67
2023/05/21 03:38:22;;;;;;;13.67;6.10;;;14.40;98.00;;;;;;5032048;28;20976;-67
2023/05/21 03:40:51;;;;;;;14.93;6.03;;;14.30;98.00;;;;;;5032772;28;20461;-67
2023/05/21 03:43:18;;;;;;;10.77;5.60;;;14.30;98.00;;;;;;5031801;28;20458;-67
2023/05/21 03:45:45;;;;;;;10.97;5.40;;;14.40;98.00;;;;;;5032587;28;20489;-67
2023/05/21 03:48:12;;;;;;;12.00;5.90;;;14.20;98.00;;;;;;5032195;28;20546;-67
2023/05/21 03:50:40;;;;;;;12.90;5.90;;;14.10;98.00;;;;;;5032173;28;20509;-67
2023/05/21 03:53:09;;;;;;;11.60;5.67;;;14.10;98.00;;;;;;5032329;28;20463;-67
2023/05/21 03:55:36;;;;;;;12.53;6.10;;;14.30;98.00;;;;;;5032155;28;20455;-67
2023/05/21 03:58:05;;;;;;;16.50;6.70;;;14.40;98.00;;;;;;5030886;28;20809;-67
2023/05/21 04:00:33;;;;;;;13.50;6.00;;;14.50;98.00;;;;;;5031799;28;20458;-66
2023/05/21 04:03:00;;;;;;;15.80;6.40;;;14.40;98.00;;;;;;5031666;28;20457;-67
2023/05/21 04:05:29;;;;;;;17.40;6.50;;;14.10;98.00;;;;;;5030702;28;20470;-66
2023/05/21 04:07:59;;;;;;;13.77;5.77;;;14.00;98.00;;;;;;5031729;28;20479;-67
2023/05/21 04:10:26;;;;;;;13.73;6.07;;;14.20;98.00;;;;;;5032009;28;20485;-67
2023/05/21 04:12:54;;;;;;;13.67;6.00;;;14.20;98.00;;;;;;5030710;28;20968;-67
2023/05/21 04:15:24;;;;;;;17.10;5.90;;;14.30;98.00;;;;;;5031798;28;20465;-67
2023/05/21 04:17:52;;;;;;;12.80;5.80;;;14.30;98.00;;;;;;5031696;28;20475;-67
2023/05/21 04:20:19;;;;;;;16.33;6.70;;;14.20;98.00;;;;;;5031718;28;20455;-68
2023/05/21 04:22:46;;;;;;;14.13;5.60;;;14.30;98.00;;;;;;5031622;28;20963;-67
2023/05/21 04:25:13;;;;;;;14.70;7.00;;;14.30;98.00;;;;;;5031560;28;20512;-68
2023/05/21 04:27:41;;;;;;;10.10;5.43;;;14.40;98.00;;;;;;5031604;28;20466;-67
2023/05/21 04:30:09;;;;;;;13.37;6.50;;;14.40;98.00;;;;;;5031528;28;20455;-67
2023/05/21 04:32:38;;;;;;;16.63;6.87;;;14.30;98.00;;;;;;5031685;28;20486;-68
2023/05/21 04:35:06;;;;;;;11.13;5.67;;;14.50;98.00;;;;;;5031858;28;20458;-67
2023/05/21 04:37:33;;;;;;;10.43;5.03;;;14.60;98.00;;;;;;5031437;28;20466;-67
2023/05/21 04:40:01;;;;;;;12.43;5.97;;;14.60;98.00;;;;;;5031514;28;20453;-67
2023/05/21 04:42:29;;;;;;;13.50;6.80;;;14.60;98.00;;;;;;5031371;28;20465;-67
2023/05/21 04:44:58;;;;;;;18.33;6.50;;;14.70;98.00;;;;;;5029836;28;20453;-67
2023/05/21 04:47:28;;;;;;;15.00;6.67;;;14.80;98.00;;;;;;5031337;28;20860;-67
2023/05/21 04:49:58;;;;;;;14.30;6.27;;;14.70;98.00;;;;;;5031260;28;20473;-67
2023/05/21 04:52:25;;;;;;;10.57;5.67;;;14.70;98.00;;;;;;5031408;28;20493;-68
2023/05/21 04:54:53;;;;;;;13.70;5.97;;;14.70;98.00;;;;;;5031262;28;20978;-67
2023/05/21 04:57:20;;;;;;;13.80;6.47;;;14.70;98.00;;;;;;5031098;28;20454;-66
2023/05/21 04:59:48;;;;;;;16.90;6.93;;;14.80;98.00;;;;;;5031286;28;20561;-68
2023/05/21 05:02:15;;;;;;;16.47;6.70;;;15.00;98.00;;;;;;5031456;28;20458;-67
2023/05/21 05:04:42;;;;;;;17.00;7.00;;;15.10;98.00;;;;;;5031240;28;20702;-67
2023/05/21 05:07:11;;;;;;;13.23;6.23;;;15.10;98.00;;;;;;5031072;28;20455;-67
2023/05/21 05:09:38;;;;;;;13.43;6.53;;;15.10;98.00;;;;;;5031068;28;21004;-67
2023/05/21 05:12:06;;;;;;;15.53;6.70;;;15.20;98.00;;;;;;5030870;28;20532;-67
2023/05/21 05:14:33;;;;;;;14.20;6.13;;;15.20;98.00;;;;;;5031097;28;20495;-68
2023/05/21 05:17:00;;;;;;;16.13;6.83;;;15.40;98.00;;;;;;5030914;28;20520;-67
2023/05/21 05:19:27;;;;;;;17.40;7.13;;;15.40;98.00;;;;;;5031292;28;21043;-67
2023/05/21 05:21:55;;;;;;;16.20;6.67;;;15.40;98.00;;;;;;5030989;28;21042;-66
2023/05/21 05:24:23;;;;;;;14.70;6.10;;;15.40;98.00;;;;;;5031072;28;20882;-68
2023/05/21 05:26:50;;;;;;;14.93;7.10;;;15.40;98.00;;;;;;5030999;28;20952;-67
2023/05/21 05:29:18;;;;;;;13.17;5.87;;;15.50;98.00;;;;;;5031132;28;20459;-67
2023/05/21 05:31:47;;;;;;;18.53;6.77;;;15.60;98.00;;;;;;5031173;28;20483;-67
2023/05/21 05:34:14;;;;;;;13.53;6.80;;;15.70;98.00;;;;;;5031225;28;20470;-67
2023/05/21 05:36:42;;;;;;;17.57;6.93;;;15.80;98.00;;;;;;5031098;28;20455;-67
2023/05/21 05:39:09;;;;;;;14.77;6.80;;;15.80;98.00;;;;;;5030837;28;20505;-68
2023/05/21 05:41:37;;;;;;;16.13;6.83;;;15.90;98.00;;;;;;5030941;28;20825;-67
2023/05/21 05:44:04;;;;;;;18.30;7.80;;;15.90;98.00;;;;;;5030704;28;20458;-67
2023/05/21 05:46:31;;;;;;;16.77;7.50;;;15.90;98.00;;;;;;5030982;28;20463;-67
2023/05/21 05:48:59;;;;;;;19.63;6.87;;;16.00;98.00;;;;;;5030571;28;20459;-67
2023/05/21 05:51:27;;;;;;;14.80;7.10;;;16.00;98.00;;;;;;5030705;28;20485;-68
2023/05/21 05:53:54;;;;;;;17.97;7.67;;;16.10;98.00;;;;;;5030658;28;20454;-67
2023/05/21 05:56:21;;;;;;;16.93;6.27;;;16.10;98.00;;;;;;5030918;28;20516;-67
2023/05/21 05:58:50;;;;;;;18.90;7.77;;;16.20;98.00;;;;;;5030641;28;20541;-67
2023/05/21 06:01:17;;;;;;;16.00;7.10;;;16.40;98.00;;;;;;5032781;28;20458;-62
2023/05/21 06:03:44;;;;;;;14.70;6.70;;;16.50;98.00;;;;;;5034224;28;21055;-62
2023/05/21 06:06:11;;;;;;;17.37;7.17;;;16.60;98.00;;;;;;5034292;28;20867;-62
2023/05/21 06:08:39;;;;;;;14.07;6.63;;;16.50;98.00;;;;;;5034107;28;20512;-62
2023/05/21 06:11:15;;;;;;;21.13;7.60;;;16.50;98.00;;;;;;5033984;28;20493;-62
2023/05/21 06:13:43;;;;;;;17.73;6.83;;;16.50;98.00;;;;;;5034002;28;20498;-62
2023/05/21 06:16:11;;;;;;;17.17;7.57;;;16.60;98.00;;;;;;5034178;28;20826;-62
2023/05/21 06:18:38;;;;;;;13.03;6.20;;;16.60;98.00;;;;;;5034162;28;20453;-62
2023/05/21 06:21:05;;;;;;;16.67;7.70;;;16.80;98.00;;;;;;5032891;28;20868;-62
2023/05/21 06:23:34;;;;;;;16.83;7.67;;;16.90;98.00;;;;;;5034141;28;20945;-62
2023/05/21 06:26:01;;;;;;;18.10;7.60;;;17.00;98.00;;;;;;5033908;28;20550;-62
2023/05/21 06:28:31;;;;;;;17.10;7.63;;;17.10;98.00;;;;;;5032472;28;20489;-62
2023/05/21 06:30:59;;;;;;;20.00;8.87;;;17.10;98.00;;;;;;5034157;28;20458;-62
2023/05/21 06:33:27;;;;;;;19.77;8.07;;;17.10;98.00;;;;;;5033884;28;20459;-62
2023/05/21 06:35:54;;;;;;;17.37;8.00;;;17.10;98.00;;;;;;5033732;28;20851;-62
2023/05/21 06:38:21;;;;;;;17.30;7.93;;;17.10;98.00;;;;;;5033492;28;20521;-62
2023/05/21 06:40:48;;;;;;;24.80;10.77;;;17.20;98.00;;;;;;5033639;28;20516;-62
2023/05/21 06:43:16;;;;;;;22.50;8.03;;;17.30;98.00;;;;;;5033291;28;20462;-62
2023/05/21 06:45:43;;;;;;;20.60;9.20;;;17.40;98.00;;;;;;5033520;28;20458;-62
2023/05/21 06:48:10;;;;;;;16.00;8.17;;;17.50;98.00;;;;;;5033379;28;20823;-62
2023/05/21 06:50:39;;;;;;;20.63;8.70;;;17.50;98.00;;;;;;5033370;28;20495;-62
2023/05/21 06:53:06;;;;;;;17.57;8.47;;;17.50;98.00;;;;;;5033149;28;20513;-62
2023/05/21 06:55:33;;;;;;;17.60;8.23;;;17.50;98.00;;;;;;5033440;28;20454;-62
2023/05/21 06:58:00;;;;;;;20.20;8.90;;;17.60;98.00;;;;;;5033066;28;20512;-62
2023/05/21 07:00:27;;;;;;;19.67;8.70;;;17.70;98.00;;;;;;5033290;28;20463;-62
2023/05/21 07:02:54;;;;;;;24.23;10.03;;;17.70;98.00;;;;;;5033224;28;20543;-62
2023/05/21 07:05:21;;;;;;;18.30;8.60;;;17.60;98.00;;;;;;5033171;28;20512;-62
2023/05/21 07:07:50;;;;;;;18.10;8.20;;;17.70;98.00;;;;;;5033137;28;20466;-62
2023/05/21 07:10:17;;;;;;;21.00;8.73;;;17.80;98.00;;;;;;5032728;28;20501;-62
2023/05/21 07:12:45;;;;;;;16.03;8.20;;;17.90;98.00;;;;;;5031704;28;20540;-62
2023/05/21 07:15:12;;;;;;;17.20;7.93;;;17.90;98.00;;;;;;5033071;28;20466;-62
2023/05/21 07:17:39;;;;;;;19.50;8.53;;;18.00;98.00;;;;;;5033148;28;20489;-63
2023/05/21 07:20:08;;;;;;;18.80;8.40;;;18.00;98.00;;;;;;5032993;28;20455;-62
2023/05/21 07:22:38;;;;;;;15.03;6.77;;;18.20;98.00;;;;;;5031594;28;20521;-62
2023/05/21 07:25:08;;;;;;;16.60;7.60;;;18.20;98.00;;;;;;5032650;28;20542;-63
2023/05/21 07:27:36;;;;;;;16.20;6.90;;;18.30;98.00;;;;;;5032431;28;20477;-63
2023/05/21 07:30:07;;;;;;;15.83;7.43;;;18.30;98.00;;;;;;5032683;28;20459;-63
2023/05/21 07:32:34;;;;;;;14.97;7.30;;;18.40;98.00;;;;;;5032758;28;20577;-62
2023/05/21 07:35:01;;;;;;;13.77;7.43;;;18.60;98.00;;;;;;5032715;28;20454;-62
2023/05/21 07:37:28;;;;;;;17.07;8.33;;;18.70;98.00;;;;;;5032712;28;20520;-62
2023/05/21 07:39:57;;;;;;;11.57;5.97;;;18.90;98.00;;;;;;5032334;28;20470;-62
2023/05/21 07:42:26;;;;;;;10.00;5.30;;;19.00;98.00;;;;;;5032482;28;20490;-63
2023/05/21 07:44:53;;;;;;;11.30;6.00;;;19.20;98.00;;;;;;5032399;28;20470;-63
2023/05/21 07:47:22;;;;;;;12.60;6.77;;;19.30;98.00;;;;;;5032335;28;20824;-62
2023/05/21 07:49:49;;;;;;;11.43;5.70;;;19.50;98.00;;;;;;5032306;28;20454;-63
2023/05/21 07:52:17;;;;;;;12.77;5.70;;;19.60;98.00;;;;;;5032044;28;20557;-62
2023/05/21 07:54:44;;;;;;;15.80;6.00;;;19.70;98.00;;;;;;5032180;28;20465;-62
2023/05/21 07:57:11;;;;;;;12.13;5.90;;;19.80;98.00;;;;;;5032099;28;20451;-63
2023/05/21 07:59:39;;;;;;;11.13;5.80;;;19.90;98.00;;;;;;5032162;28;20536;-63
2023/05/21 08:02:07;;;;;;;9.57;5.37;;;20.10;98.00;;;;;;5030824;28;20458;-62
2023/05/21 08:04:34;;;;;;;12.50;6.10;;;20.10;98.00;;;;;;5032006;28;20463;-63
2023/05/21 08:07:02;;;;;;;11.07;5.80;;;20.10;98.00;;;;;;5031970;28;20509;-63
2023/05/21 08:09:31;;;;;;;11.53;5.70;;;20.20;98.00;;;;;;5031984;28;20455;-63
2023/05/21 08:11:58;;;;;;;11.07;5.80;;;20.40;98.00;;;;;;5030829;28;20852;-63
2023/05/21 08:14:25;;;;;;;11.37;5.60;;;20.40;98.00;;;;;;5032036;28;20459;-63
2023/05/21 08:16:53;;;;;;;11.00;5.23;;;20.60;98.00;;;;;;5032122;28;20458;-63
2023/05/21 08:19:20;;;;;;;9.53;5.60;;;20.80;98.00;;;;;;5031355;28;20454;-63
2023/05/21 08:21:47;;;;;;;12.40;5.70;;;20.90;98.00;;;;;;5031650;28;20450;-62
2023/05/21 08:24:14;;;;;;;14.00;5.90;;;21.10;98.00;;;;;;5029820;28;20839;-63
2023/05/21 08:26:43;;;;;;;12.27;6.50;;;21.10;98.00;;;;;;5031724;28;20470;-63
2023/05/21 08:29:11;;;;;;;10.83;5.37;;;21.10;98.00;;;;;;5031437;28;20470;-63
2023/05/21 08:31:39;;;;;;;11.27;5.70;;;21.20;98.00;;;;;;5041571;28;20457;-63
2023/05/21 08:34:07;;;;;;;10.70;5.60;;;21.30;98.00;;;;;;5049684;28;20511;-63
2023/05/21 08:36:34;;;;;;;10.43;5.70;;;21.40;98.00;;;;;;5050706;28;20511;-63
2023/05/21 08:39:02;;;;;;;12.80;6.27;;;21.50;98.00;;;;;;5050951;28;20450;-63
2023/05/21 08:41:33;;;;;;;11.50;6.53;;;21.60;98.00;;;;;;5051240;28;20457;-63
2023/05/21 08:44:02;;;;;;;11.27;5.60;;;21.70;98.00;;;;;;5051064;28;20470;-63
2023/05/21 08:46:33;;;;;;;10.70;5.97;;;21.90;98.00;;;;;;5051163;28;20460;-63
2023/05/21 08:49:03;;;;;;;11.17;5.67;;;22.00;98.00;;;;;;5031748;28;20546;-63
2023/05/21 08:51:31;;;;;;;9.27;5.20;;;22.10;98.00;;;;;;5028893;28;20953;-63
2023/05/21 08:54:01;;;;;;;12.03;6.30;;;22.30;98.00;;;;;;5031180;28;20454;-63
2023/05/21 08:56:31;;;;;;;11.57;5.60;;;22.30;98.00;;;;;;5031946;28;20459;-63
2023/05/21 08:58:59;;;;;;;14.50;5.80;;;22.40;98.00;;;;;;5031855;28;20501;-63
2023/05/21 09:01:26;;;;;;;10.00;5.57;;;22.50;98.00;;;;;;5031973;28;20495;-64
2023/05/21 09:03:58;;;;;;;13.43;5.97;;;22.50;98.00;;;;;;5032166;28;20462;-64
2023/05/21 09:06:25;;;;;;;14.77;7.00;;;22.70;98.00;;;;;;5031847;28;20463;-63
2023/05/21 09:09:04;;;;;;;15.23;5.70;;;22.80;98.00;;;;;;5031922;28;20459;-64
2023/05/21 09:11:31;;;;;;;10.00;5.47;;;23.00;98.00;;;;;;5030099;28;20500;-64
2023/05/21 09:14:00;;;;;;;12.00;5.10;;;23.10;98.00;;;;;;5031708;28;20613;-63
2023/05/21 09:16:27;;;;;;;11.53;5.83;;;23.10;98.00;;;;;;5031301;28;20458;-64
2023/05/21 09:18:54;;;;;;;10.57;6.00;;;23.20;98.00;;;;;;5036978;28;20872;-64
2023/05/21 09:21:26;;;;;;;9.97;4.93;;;23.20;98.00;;;;;;5051360;28;20928;-63
2023/05/21 09:23:56;;;;;;;10.33;5.17;;;23.20;98.00;;;;;;5051455;28;20454;-64
2023/05/21 09:26:25;;;;;;;9.77;5.50;;;23.20;98.00;;;;;;5051373;28;20545;-64
2023/05/21 09:28:56;;;;;;;9.30;5.60;;;23.30;98.00;;;;;;5051309;28;20536;-64
2023/05/21 09:31:25;;;;;;;10.60;5.70;;;23.20;98.00;;;;;;5051566;28;20454;-63
2023/05/21 09:33:54;;;;;;;11.70;6.10;;;23.20;98.00;;;;;;5033970;28;21043;-63
2023/05/21 09:36:21;;;;;;;8.13;4.70;;;23.40;98.00;;;;;;5053765;28;20449;-64
2023/05/21 09:38:50;;;;;;;11.10;5.77;;;23.40;98.00;;;;;;5055018;28;20453;-64
2023/05/21 09:41:20;;;;;;;9.70;5.47;;;23.50;98.00;;;;;;5055225;28;20467;-63
2023/05/21 09:43:47;;;;;;;9.77;5.00;;;23.60;98.00;;;;;;5055265;28;20784;-65
2023/05/21 09:46:14;;;;;;;10.57;5.60;;;23.60;98.00;;;;;;5055009;28;20453;-64
2023/05/21 09:48:42;;;;;;;10.93;5.50;;;23.70;98.00;;;;;;5055163;28;20472;-65
2023/05/21 09:51:11;;;;;;;9.80;5.47;;;23.70;98.00;;;;;;5055082;28;20445;-64
2023/05/21 09:53:56;;;;;;;10.50;5.30;;;23.60;98.00;;;;;;5055010;28;20838;-65
2023/05/21 09:56:26;;;;;;;7.90;5.03;;;23.80;98.00;;;;;;5053016;28;20454;-64
2023/05/21 09:58:55;;;;;;;10.77;5.10;;;23.90;98.00;;;;;;5055219;28;20466;-64
2023/05/21 10:01:23;;;;;;;10.30;5.47;;;23.90;98.00;;;;;;5055166;28;20457;-64
2023/05/21 10:03:55;;;;;;;9.60;5.10;;;23.90;98.00;;;;;;5054983;28;20992;-64
2023/05/21 10:06:24;;;;;;;9.03;5.20;;;23.80;98.00;;;;;;5054809;28;20545;-65
2023/05/21 10:08:53;;;;;;;9.47;5.30;;;23.70;98.00;;;;;;5054958;28;20465;-65
2023/05/21 10:11:25;;;;;;;9.37;5.03;;;23.70;98.00;;;;;;5054579;28;20449;-65
2023/05/21 10:13:57;;;;;;;9.47;5.17;;;23.80;98.00;;;;;;5054540;28;20520;-64
2023/05/21 10:16:25;;;;;;;9.63;5.10;;;23.90;96.80;;;;;;5054567;28;20488;-63
2023/05/21 10:18:54;;;;;;;10.50;5.47;;;24.20;97.20;;;;;;5054327;28;20489;-63
2023/05/21 10:21:23;;;;;;;9.80;5.30;;;24.50;97.00;;;;;;5054301;28;20454;-63
2023/05/21 10:23:51;;;;;;;7.80;4.93;;;24.70;96.30;;;;;;5052739;28;20462;-64
2023/05/21 10:26:20;;;;;;;9.63;5.47;;;25.00;92.80;;;;;;5053103;28;20548;-64
2023/05/21 10:28:49;;;;;;;9.20;5.27;;;25.20;95.00;;;;;;5054026;28;20523;-64
2023/05/21 10:31:17;;;;;;;11.13;5.00;;;25.40;94.80;;;;;;5054119;28;20531;-65
2023/05/21 10:33:44;;;;;;;12.23;5.50;;;25.50;92.30;;;;;;5052233;28;20482;-63
2023/05/21 10:36:12;;;;;;;9.00;4.80;;;25.60;91.10;;;;;;5053404;28;20454;-62
2023/05/21 10:38:40;;;;;;;10.07;5.30;;;25.90;92.70;;;;;;5052189;28;20461;-62
2023/05/21 10:41:08;;;;;;;10.63;5.70;;;25.80;90.90;;;;;;5053433;28;20508;-62
2023/05/21 10:43:46;;;;;;;12.00;5.67;;;26.00;93.30;;;;;;5053443;28;20535;-62
2023/05/21 10:46:45;;;;;;;9.50;5.40;;;26.10;93.20;;;;;;5053711;28;20464;-61
2023/05/21 10:49:38;;;;;;;8.90;4.70;;;26.20;92.30;;;;;;5053911;28;20469;-62
2023/05/21 10:52:17;;;;;;;8.67;4.80;;;26.00;89.90;;;;;;5053934;28;20477;-62
2023/05/21 10:55:02;;;;;;;7.87;4.57;;;25.90;90.10;;;;;;5054149;28;20488;-62
2023/05/21 10:57:58;;;;;;;9.60;5.33;;;26.10;91.70;;;;;;5054071;28;20458;-62
2023/05/21 11:00:27;;;;;;;9.23;5.30;;;26.10;92.40;;;;;;5054149;28;20466;-62
2023/05/21 11:02:55;;;;;;;9.33;4.90;;;26.30;89.50;;;;;;5053854;28;20462;-62
2023/05/21 11:05:41;;;;;;;9.67;5.37;;;26.50;89.60;;;;;;5053835;28;20457;-62
2023/05/21 11:08:21;;;;;;;12.70;5.47;;;26.80;89.20;;;;;;5053255;28;20528;-62
2023/05/21 11:10:53;;;;;;;10.93;5.73;;;26.90;88.20;;;;;;5053588;28;20985;-62
2023/05/21 11:13:20;;;;;;;11.70;5.40;;;27.00;88.80;;;;;;5051972;28;20517;-61
2023/05/21 11:16:13;;;;;;;11.10;5.37;;;27.20;87.40;;;;;;5053659;28;20464;-62
2023/05/21 11:19:01;;;;;;;9.03;5.30;;;27.40;86.30;;;;;;5053372;28;20531;-61
2023/05/21 11:21:34;;;;;;;7.30;5.20;;;27.60;87.90;;;;;;5053226;28;20494;-62
2023/05/21 11:24:07;;;;;;;10.20;5.30;;;27.80;86.00;;;;;;5053262;28;20486;-62
2023/05/21 11:27:01;;;;;;;9.97;5.90;;;27.90;86.20;;;;;;5053378;28;20454;-62
2023/05/21 11:29:43;;;;;;;10.33;5.50;;;27.70;86.40;;;;;;5053188;28;20537;-61
2023/05/21 11:32:11;;;;;;;7.17;4.60;;;27.80;87.40;;;;;;5051779;28;20784;-61
2023/05/21 11:34:42;;;;;;;10.73;6.07;;;27.60;86.90;;;;;;5053054;28;20485;-61
2023/05/21 11:37:28;;;;;;;9.43;5.60;;;27.30;86.90;;;;;;5053033;28;20458;-61
2023/05/21 11:39:55;;;;;;;11.17;5.37;;;27.20;88.40;;;;;;5052994;28;20457;-61
2023/05/21 11:42:31;;;;;;;13.07;5.50;;;26.90;88.00;;;;;;5053162;28;20457;-62
2023/05/21 11:44:59;;;;;;;9.40;5.00;;;26.90;90.10;;;;;;5052827;28;20457;-63
2023/05/21 11:47:27;;;;;;;8.97;5.20;;;27.20;90.20;;;;;;5053047;28;20462;-63
2023/05/21 11:49:58;;;;;;;11.13;5.63;;;27.50;92.40;;;;;;5052692;28;20464;-62
2023/05/21 11:52:25;;;;;;;10.57;5.43;;;27.70;90.60;;;;;;5051449;28;20652;-62
2023/05/21 11:54:55;;;;;;;8.53;4.93;;;27.80;90.10;;;;;;5052815;28;20457;-61
2023/05/21 11:57:27;;;;;;;12.30;5.37;;;28.00;88.70;;;;;;5052955;28;20454;-62
2023/05/21 11:59:57;;;;;;;7.87;4.80;;;28.10;90.20;;;;;;5051008;28;20457;-63
2023/05/21 12:02:26;;;;;;;9.70;5.70;;;28.20;87.70;;;;;;5052182;28;20872;-62
2023/05/21 12:04:53;;;;;;;8.80;5.43;;;28.30;87.80;;;;;;5052288;28;21165;-62
2023/05/21 12:07:22;;;;;;;10.00;5.70;;;28.30;87.00;;;;;;5052353;28;20450;-61
2023/05/21 12:09:51;;;;;;;9.33;5.30;;;28.20;87.40;;;;;;5050981;28;20457;-62
2023/05/21 12:12:21;;;;;;;8.60;5.10;;;28.20;89.10;;;;;;5052397;28;20450;-63
2023/05/21 12:14:49;;;;;;;11.40;5.87;;;28.20;86.10;;;;;;5052061;28;20488;-62
2023/05/21 12:17:20;;;;;;;9.23;4.80;;;28.20;85.80;;;;;;5052205;28;20458;-62
2023/05/21 12:19:48;;;;;;;10.57;5.20;;;28.20;87.70;;;;;;5050821;28;20489;-63
2023/05/21 12:22:15;;;;;;;8.00;4.60;;;28.30;86.70;;;;;;5052204;28;20458;-62
2023/05/21 12:24:45;;;;;;;9.90;5.57;;;28.30;86.50;;;;;;5052274;28;20884;-62
2023/05/21 12:27:15;;;;;;;12.33;5.93;;;28.20;85.70;;;;;;5046992;28;20972;-61
2023/05/21 12:29:44;;;;;;;10.10;5.40;;;28.30;85.50;;;;;;5030320;28;20462;-62
2023/05/21 12:32:12;;;;;;;8.37;4.90;;;28.30;86.20;;;;;;5030126;28;20466;-62
2023/05/21 12:34:44;;;;;;;11.87;5.37;;;28.30;83.80;;;;;;5031044;28;20536;-63
2023/05/21 12:37:12;;;;;;;8.13;5.03;;;28.30;85.70;;;;;;5032080;28;20504;-63
2023/05/21 12:39:41;;;;;;;9.00;5.17;;;28.10;86.70;;;;;;5031439;28;20463;-63
2023/05/21 12:42:09;;;;;;;8.33;5.20;;;28.10;87.30;;;;;;5032082;28;20454;-62
2023/05/21 12:44:38;;;;;;;9.20;4.77;;;28.10;85.20;;;;;;5031930;28;20450;-63
2023/05/21 12:47:05;;;;;;;8.60;5.00;;;27.90;84.90;;;;;;5031982;28;20516;-63